sensor_id;sensor_type;location;lat;lon;timestamp;temperature;humidity
8914;DHT22;4492;48.736;9.092;2022-07-21T00:01:08;17.60;99.90
8914;DHT22;4492;48.736;9.092;2022-07-21T00:03:34;17.60;99.90
8914;DHT22;4492;48.736;9.092;2022-07-21T00:06:00;17.60;99.90
8914;DHT22;4492;48.736;9.092;2022-07-21T00:08:25;17.50;99.90
8914;DHT22;4492;48.736;9.092;2022-07-21T00:10:51;17.50;99.90
8914;DHT22;4492;48.736;9.092;2022-07-21T00:13:17;17.50;99.90
8914;DHT22;4492;48.736;9.092;2022-07-21T00:15:43;17.50;99.90
8914;DHT22;4492;48.736;9.092;2022-07-21T00:18:09;17.50;99.90
8914;DHT22;4492;48.736;9.092;2022-07-21T00:20:35;17.40;99.90
8914;DHT22;4492;48.736;9.092;2022-07-21T00:23:00;17.50;99.90
8914;DHT22;4492;48.736;9.092;2022-07-21T00:25:26;17.40;99.90
8914;DHT22;4492;48.736;9.092;2022-07-21T00:27:52;17.40;99.90
8914;DHT22;4492;48.736;9.092;2022-07-21T00:30:17;17.30;99.90
8914;DHT22;4492;48.736;9.092;2022-07-21T00:32:43;17.40;99.90
8914;DHT22;4492;48.736;9.092;2022-07-21T00:35:10;17.30;99.90
8914;DHT22;4492;48.736;9.092;2022-07-21T00:37:36;17.30;99.90
8914;DHT22;4492;48.736;9.092;2022-07-21T00:40:03;17.30;99.90
8914;DHT22;4492;48.736;9.092;2022-07-21T00:42:31;17.30;99.90
8914;DHT22;4492;48.736;9.092;2022-07-21T00:44:57;17.40;99.90
8914;DHT22;4492;48.736;9.092;2022-07-21T00:47:24;17.40;99.90
8914;DHT22;4492;48.736;9.092;2022-07-21T00:49:50;17.40;99.90
8914;DHT22;4492;48.736;9.092;2022-07-21T00:52:16;17.40;99.90
8914;DHT22;4492;48.736;9.092;2022-07-21T00:54:42;17.40;99.90
8914;DHT22;4492;48.736;9.092;2022-07-21T00:57:08;17.50;99.90
8914;DHT22;4492;48.736;9.092;2022-07-21T00:59:34;17.50;99.90
8914;DHT22;4492;48.736;9.092;2022-07-21T01:02:00;17.50;99.90
8914;DHT22;4492;48.736;9.092;2022-07-21T01:04:27;17.60;99.90
8914;DHT22;4492;48.736;9.092;2022-07-21T01:06:53;17.60;99.90
8914;DHT22;4492;48.736;9.092;2022-07-21T01:09:19;17.60;99.90
8914;DHT22;4492;48.736;9.092;2022-07-21T01:11:46;17.60;99.90
8914;DHT22;4492;48.736;9.092;2022-07-21T01:14:12;17.70;99.90
8914;DHT22;4492;48.736;9.092;2022-07-21T01:16:39;17.70;99.90
8914;DHT22;4492;48.736;9.092;2022-07-21T01:19:06;17.70;99.90
8914;DHT22;4492;48.736;9.092;2022-07-21T01:21:37;17.70;99.90
8914;DHT22;4492;48.736;9.092;2022-07-21T01:24:04;17.70;99.90
8914;DHT22;4492;48.736;9.092;2022-07-21T01:26:30;17.70;99.90
8914;DHT22;4492;48.736;9.092;2022-07-21T01:28:57;17.70;99.90
8914;DHT22;4492;48.736;9.092;2022-07-21T01:31:23;17.70;99.90
8914;DHT22;4492;48.736;9.092;2022-07-21T01:33:49;17.60;99.90
8914;DHT22;4492;48.736;9.092;2022-07-21T01:36:16;17.70;99.90
8914;DHT22;4492;48.736;9.092;2022-07-21T01:38:43;17.70;99.90
8914;DHT22;4492;48.736;9.092;2022-07-21T01:41:27;17.70;99.90
8914;DHT22;4492;48.736;9.092;2022-07-21T01:43:56;17.70;99.90
8914;DHT22;4492;48.736;9.092;2022-07-21T01:46:22;17.70;99.90
8914;DHT22;4492;48.736;9.092;2022-07-21T01:48:47;17.60;99.90
8914;DHT22;4492;48.736;9.092;2022-07-21T01:51:13;17.60;99.90
8914;DHT22;4492;48.736;9.092;2022-07-21T01:53:39;17.60;99.90
8914;DHT22;4492;48.736;9.092;2022-07-21T01:56:05;17.60;99.90
8914;DHT22;4492;48.736;9.092;2022-07-21T01:58:31;17.70;99.90
8914;DHT22;4492;48.736;9.092;2022-07-21T02:00:57;17.70;99.90
8914;DHT22;4492;48.736;9.092;2022-07-21T02:03:23;17.70;99.90
8914;DHT22;4492;48.736;9.092;2022-07-21T02:05:49;17.70;99.90
8914;DHT22;4492;48.736;9.092;2022-07-21T02:08:14;17.70;99.90
8914;DHT22;4492;48.736;9.092;2022-07-21T02:10:40;17.60;99.90
8914;DHT22;4492;48.736;9.092;2022-07-21T02:13:05;17.60;99.90
8914;DHT22;4492;48.736;9.092;2022-07-21T02:15:31;17.60;99.90
8914;DHT22;4492;48.736;9.092;2022-07-21T02:17:58;17.60;99.90
8914;DHT22;4492;48.736;9.092;2022-07-21T02:20:23;17.50;99.90
8914;DHT22;4492;48.736;9.092;2022-07-21T02:22:50;17.50;99.90
8914;DHT22;4492;48.736;9.092;2022-07-21T02:25:16;17.60;99.90
8914;DHT22;4492;48.736;9.092;2022-07-21T02:27:43;17.50;99.90
8914;DHT22;4492;48.736;9.092;2022-07-21T02:30:09;17.50;99.90
8914;DHT22;4492;48.736;9.092;2022-07-21T02:32:35;17.50;99.90
8914;DHT22;4492;48.736;9.092;2022-07-21T02:35:00;17.50;99.90
8914;DHT22;4492;48.736;9.092;2022-07-21T02:37:27;17.50;99.90
8914;DHT22;4492;48.736;9.092;2022-07-21T02:39:53;17.50;99.90
8914;DHT22;4492;48.736;9.092;2022-07-21T02:42:19;17.50;99.90
8914;DHT22;4492;48.736;9.092;2022-07-21T02:44:44;17.50;99.90
8914;DHT22;4492;48.736;9.092;2022-07-21T02:47:10;17.50;99.90
8914;DHT22;4492;48.736;9.092;2022-07-21T02:49:35;17.50;99.90
8914;DHT22;4492;48.736;9.092;2022-07-21T02:52:01;17.50;99.90
8914;DHT22;4492;48.736;9.092;2022-07-21T02:54:27;17.50;99.90
8914;DHT22;4492;48.736;9.092;2022-07-21T02:56:52;17.50;99.90
8914;DHT22;4492;48.736;9.092;2022-07-21T02:59:18;17.50;99.90
8914;DHT22;4492;48.736;9.092;2022-07-21T03:01:43;17.50;99.90
8914;DHT22;4492;48.736;9.092;2022-07-21T03:04:09;17.50;99.90
8914;DHT22;4492;48.736;9.092;2022-07-21T03:06:36;17.40;99.90
8914;DHT22;4492;48.736;9.092;2022-07-21T03:09:03;17.40;99.90
8914;DHT22;4492;48.736;9.092;2022-07-21T03:11:28;17.40;99.90
8914;DHT22;4492;48.736;9.092;2022-07-21T03:13:54;17.40;99.90
8914;DHT22;4492;48.736;9.092;2022-07-21T03:16:19;17.30;99.90
8914;DHT22;4492;48.736;9.092;2022-07-21T03:18:45;17.30;99.90
8914;DHT22;4492;48.736;9.092;2022-07-21T03:21:11;17.20;99.90
8914;DHT22;4492;48.736;9.092;2022-07-21T03:23:36;17.30;99.90
8914;DHT22;4492;48.736;9.092;2022-07-21T03:26:02;17.20;99.90
8914;DHT22;4492;48.736;9.092;2022-07-21T03:28:28;17.20;99.90
8914;DHT22;4492;48.736;9.092;2022-07-21T03:30:53;17.20;99.90
8914;DHT22;4492;48.736;9.092;2022-07-21T03:33:19;17.20;99.90
8914;DHT22;4492;48.736;9.092;2022-07-21T03:35:44;17.20;99.90
8914;DHT22;4492;48.736;9.092;2022-07-21T03:38:10;17.30;99.90
8914;DHT22;4492;48.736;9.092;2022-07-21T03:40:37;17.20;99.90
8914;DHT22;4492;48.736;9.092;2022-07-21T03:43:04;17.20;99.90
8914;DHT22;4492;48.736;9.092;2022-07-21T03:45:31;17.20;99.90
8914;DHT22;4492;48.736;9.092;2022-07-21T03:47:58;17.20;99.90
8914;DHT22;4492;48.736;9.092;2022-07-21T03:50:24;17.20;99.90
8914;DHT22;4492;48.736;9.092;2022-07-21T03:52:51;17.20;99.90
8914;DHT22;4492;48.736;9.092;2022-07-21T03:55:19;17.20;99.90
8914;DHT22;4492;48.736;9.092;2022-07-21T03:57:51;17.20;99.90
8914;DHT22;4492;48.736;9.092;2022-07-21T04:00:19;17.20;99.90
8914;DHT22;4492;48.736;9.092;2022-07-21T04:02:47;17.20;99.90
8914;DHT22;4492;48.736;9.092;2022-07-21T04:05:13;17.20;99.90
8914;DHT22;4492;48.736;9.092;2022-07-21T04:07:40;17.10;99.90
8914;DHT22;4492;48.736;9.092;2022-07-21T04:10:07;17.10;99.90
8914;DHT22;4492;48.736;9.092;2022-07-21T04:12:33;17.10;99.90
8914;DHT22;4492;48.736;9.092;2022-07-21T04:14:58;17.10;99.90
8914;DHT22;4492;48.736;9.092;2022-07-21T04:17:24;17.10;99.90
8914;DHT22;4492;48.736;9.092;2022-07-21T04:19:50;17.00;99.90
8914;DHT22;4492;48.736;9.092;2022-07-21T04:22:15;17.00;99.90
8914;DHT22;4492;48.736;9.092;2022-07-21T04:24:41;17.00;99.90
8914;DHT22;4492;48.736;9.092;2022-07-21T04:27:07;17.00;99.90
8914;DHT22;4492;48.736;9.092;2022-07-21T04:29:33;17.00;99.90
8914;DHT22;4492;48.736;9.092;2022-07-21T04:31:58;16.90;99.90
8914;DHT22;4492;48.736;9.092;2022-07-21T04:34:24;17.00;99.90
8914;DHT22;4492;48.736;9.092;2022-07-21T04:36:49;17.00;99.90
8914;DHT22;4492;48.736;9.092;2022-07-21T04:39:15;17.00;99.90
8914;DHT22;4492;48.736;9.092;2022-07-21T04:41:40;17.10;99.90
8914;DHT22;4492;48.736;9.092;2022-07-21T04:44:06;17.10;99.90
8914;DHT22;4492;48.736;9.092;2022-07-21T04:46:32;17.10;99.90
8914;DHT22;4492;48.736;9.092;2022-07-21T04:48:57;17.10;99.90
8914;DHT22;4492;48.736;9.092;2022-07-21T04:51:23;17.20;99.90
8914;DHT22;4492;48.736;9.092;2022-07-21T04:53:48;17.20;99.90
8914;DHT22;4492;48.736;9.092;2022-07-21T04:56:14;17.20;99.90
8914;DHT22;4492;48.736;9.092;2022-07-21T04:58:39;17.40;99.90
8914;DHT22;4492;48.736;9.092;2022-07-21T05:01:05;17.50;99.90
8914;DHT22;4492;48.736;9.092;2022-07-21T05:03:30;17.50;99.90
8914;DHT22;4492;48.736;9.092;2022-07-21T05:05:56;17.50;99.90
8914;DHT22;4492;48.736;9.092;2022-07-21T05:08:21;17.60;99.90
8914;DHT22;4492;48.736;9.092;2022-07-21T05:10:47;17.60;99.90
8914;DHT22;4492;48.736;9.092;2022-07-21T05:13:12;17.70;99.90
8914;DHT22;4492;48.736;9.092;2022-07-21T05:15:38;17.70;99.90
8914;DHT22;4492;48.736;9.092;2022-07-21T05:18:07;17.70;99.90
8914;DHT22;4492;48.736;9.092;2022-07-21T05:20:33;17.80;99.90
8914;DHT22;4492;48.736;9.092;2022-07-21T05:22:58;17.90;99.90
8914;DHT22;4492;48.736;9.092;2022-07-21T05:25:24;18.00;99.90
8914;DHT22;4492;48.736;9.092;2022-07-21T05:27:49;18.10;99.90
8914;DHT22;4492;48.736;9.092;2022-07-21T05:30:15;18.10;99.90
8914;DHT22;4492;48.736;9.092;2022-07-21T05:32:41;18.10;99.90
8914;DHT22;4492;48.736;9.092;2022-07-21T05:35:07;18.20;99.90
8914;DHT22;4492;48.736;9.092;2022-07-21T05:37:37;18.30;99.90
8914;DHT22;4492;48.736;9.092;2022-07-21T05:40:03;18.40;99.90
8914;DHT22;4492;48.736;9.092;2022-07-21T05:42:29;18.40;99.90
8914;DHT22;4492;48.736;9.092;2022-07-21T05:44:54;18.50;99.90
8914;DHT22;4492;48.736;9.092;2022-07-21T05:47:21;18.60;99.90
8914;DHT22;4492;48.736;9.092;2022-07-21T05:49:47;18.60;99.90
8914;DHT22;4492;48.736;9.092;2022-07-21T05:52:12;18.70;99.90
8914;DHT22;4492;48.736;9.092;2022-07-21T05:54:38;18.80;99.90
8914;DHT22;4492;48.736;9.092;2022-07-21T05:57:04;18.80;99.90
8914;DHT22;4492;48.736;9.092;2022-07-21T05:59:29;18.90;99.90
8914;DHT22;4492;48.736;9.092;2022-07-21T06:01:55;19.00;99.90
8914;DHT22;4492;48.736;9.092;2022-07-21T06:04:20;19.10;99.90
8914;DHT22;4492;48.736;9.092;2022-07-21T06:06:46;19.20;99.90
8914;DHT22;4492;48.736;9.092;2022-07-21T06:09:11;19.30;99.90
8914;DHT22;4492;48.736;9.092;2022-07-21T06:11:37;19.40;99.90
8914;DHT22;4492;48.736;9.092;2022-07-21T06:14:03;19.50;99.90
8914;DHT22;4492;48.736;9.092;2022-07-21T06:16:29;19.50;99.90
8914;DHT22;4492;48.736;9.092;2022-07-21T06:18:55;19.60;99.90
8914;DHT22;4492;48.736;9.092;2022-07-21T06:21:20;19.70;99.90
8914;DHT22;4492;48.736;9.092;2022-07-21T06:23:46;19.80;99.90
8914;DHT22;4492;48.736;9.092;2022-07-21T06:26:11;20.00;99.90
8914;DHT22;4492;48.736;9.092;2022-07-21T06:28:37;20.10;99.90
8914;DHT22;4492;48.736;9.092;2022-07-21T06:31:03;20.20;99.90
8914;DHT22;4492;48.736;9.092;2022-07-21T06:33:28;20.30;99.90
8914;DHT22;4492;48.736;9.092;2022-07-21T06:35:54;20.50;99.90
8914;DHT22;4492;48.736;9.092;2022-07-21T06:38:20;20.60;99.90
8914;DHT22;4492;48.736;9.092;2022-07-21T06:40:46;20.60;99.90
8914;DHT22;4492;48.736;9.092;2022-07-21T06:43:12;20.60;99.90
8914;DHT22;4492;48.736;9.092;2022-07-21T06:45:37;20.60;99.90
8914;DHT22;4492;48.736;9.092;2022-07-21T06:48:07;20.50;99.90
8914;DHT22;4492;48.736;9.092;2022-07-21T06:50:34;20.60;99.90
8914;DHT22;4492;48.736;9.092;2022-07-21T06:53:00;20.60;99.90
8914;DHT22;4492;48.736;9.092;2022-07-21T06:55:26;20.60;99.90
8914;DHT22;4492;48.736;9.092;2022-07-21T06:57:52;20.70;99.90
8914;DHT22;4492;48.736;9.092;2022-07-21T07:00:19;20.80;99.90
8914;DHT22;4492;48.736;9.092;2022-07-21T07:02:44;20.90;99.90
8914;DHT22;4492;48.736;9.092;2022-07-21T07:05:10;20.80;99.90
8914;DHT22;4492;48.736;9.092;2022-07-21T07:07:35;20.90;99.90
8914;DHT22;4492;48.736;9.092;2022-07-21T07:10:01;21.00;99.90
8914;DHT22;4492;48.736;9.092;2022-07-21T07:12:28;21.20;99.90
8914;DHT22;4492;48.736;9.092;2022-07-21T07:14:53;21.30;99.90
8914;DHT22;4492;48.736;9.092;2022-07-21T07:17:19;21.40;99.90
8914;DHT22;4492;48.736;9.092;2022-07-21T07:19:49;21.40;99.90
8914;DHT22;4492;48.736;9.092;2022-07-21T07:22:14;21.50;99.90
8914;DHT22;4492;48.736;9.092;2022-07-21T07:24:40;21.70;99.90
8914;DHT22;4492;48.736;9.092;2022-07-21T07:27:06;21.90;99.90
8914;DHT22;4492;48.736;9.092;2022-07-21T07:29:32;22.20;99.90
8914;DHT22;4492;48.736;9.092;2022-07-21T07:31:58;22.30;99.90
8914;DHT22;4492;48.736;9.092;2022-07-21T07:34:24;22.40;99.90
8914;DHT22;4492;48.736;9.092;2022-07-21T07:36:49;22.60;99.90
8914;DHT22;4492;48.736;9.092;2022-07-21T07:39:15;22.90;99.90
8914;DHT22;4492;48.736;9.092;2022-07-21T07:41:41;23.20;99.90
8914;DHT22;4492;48.736;9.092;2022-07-21T07:44:06;23.40;99.90
8914;DHT22;4492;48.736;9.092;2022-07-21T07:46:32;23.40;99.90
8914;DHT22;4492;48.736;9.092;2022-07-21T07:48:57;23.50;99.90
8914;DHT22;4492;48.736;9.092;2022-07-21T07:51:24;23.60;99.90
8914;DHT22;4492;48.736;9.092;2022-07-21T07:53:50;23.80;99.90
8914;DHT22;4492;48.736;9.092;2022-07-21T07:56:15;24.00;99.90
8914;DHT22;4492;48.736;9.092;2022-07-21T07:58:41;23.60;99.90
8914;DHT22;4492;48.736;9.092;2022-07-21T08:01:06;23.40;99.90
8914;DHT22;4492;48.736;9.092;2022-07-21T08:03:32;23.20;99.90
8914;DHT22;4492;48.736;9.092;2022-07-21T08:05:58;23.00;99.90
8914;DHT22;4492;48.736;9.092;2022-07-21T08:08:28;22.80;99.90
8914;DHT22;4492;48.736;9.092;2022-07-21T08:10:53;22.60;99.90
8914;DHT22;4492;48.736;9.092;2022-07-21T08:13:19;22.50;99.90
8914;DHT22;4492;48.736;9.092;2022-07-21T08:15:48;22.70;99.90
8914;DHT22;4492;48.736;9.092;2022-07-21T08:18:15;23.20;99.90
8914;DHT22;4492;48.736;9.092;2022-07-21T08:20:41;23.60;99.90
8914;DHT22;4492;48.736;9.092;2022-07-21T08:23:06;23.80;99.80
8914;DHT22;4492;48.736;9.092;2022-07-21T08:25:32;23.70;99.90
8914;DHT22;4492;48.736;9.092;2022-07-21T08:27:58;23.90;99.90
8914;DHT22;4492;48.736;9.092;2022-07-21T08:30:24;23.90;99.90
8914;DHT22;4492;48.736;9.092;2022-07-21T08:32:50;24.00;99.90
8914;DHT22;4492;48.736;9.092;2022-07-21T08:35:16;24.00;99.90
8914;DHT22;4492;48.736;9.092;2022-07-21T08:37:41;24.10;99.20
8914;DHT22;4492;48.736;9.092;2022-07-21T08:40:09;23.90;98.30
8914;DHT22;4492;48.736;9.092;2022-07-21T08:42:35;23.80;98.80
8914;DHT22;4492;48.736;9.092;2022-07-21T08:45:01;23.60;99.00
8914;DHT22;4492;48.736;9.092;2022-07-21T08:47:27;23.60;99.00
8914;DHT22;4492;48.736;9.092;2022-07-21T08:49:53;23.50;98.90
8914;DHT22;4492;48.736;9.092;2022-07-21T08:52:20;23.50;98.60
8914;DHT22;4492;48.736;9.092;2022-07-21T08:54:45;23.60;98.40
8914;DHT22;4492;48.736;9.092;2022-07-21T08:57:11;23.50;99.10
8914;DHT22;4492;48.736;9.092;2022-07-21T08:59:37;23.40;98.10
8914;DHT22;4492;48.736;9.092;2022-07-21T09:02:03;23.50;98.60
8914;DHT22;4492;48.736;9.092;2022-07-21T09:04:33;23.50;98.30
8914;DHT22;4492;48.736;9.092;2022-07-21T09:07:03;23.40;97.20
8914;DHT22;4492;48.736;9.092;2022-07-21T09:09:30;23.00;97.50
8914;DHT22;4492;48.736;9.092;2022-07-21T09:11:57;22.80;99.80
8914;DHT22;4492;48.736;9.092;2022-07-21T09:14:26;22.80;99.60
8914;DHT22;4492;48.736;9.092;2022-07-21T09:17:00;22.90;99.10
8914;DHT22;4492;48.736;9.092;2022-07-21T09:21:55;22.90;98.50
8914;DHT22;4492;48.736;9.092;2022-07-21T09:24:30;23.00;98.50
8914;DHT22;4492;48.736;9.092;2022-07-21T09:26:58;23.10;99.40
8914;DHT22;4492;48.736;9.092;2022-07-21T09:29:25;23.20;99.70
8914;DHT22;4492;48.736;9.092;2022-07-21T09:31:50;23.30;98.60
8914;DHT22;4492;48.736;9.092;2022-07-21T09:34:16;23.60;97.90
8914;DHT22;4492;48.736;9.092;2022-07-21T09:36:57;23.80;97.20
8914;DHT22;4492;48.736;9.092;2022-07-21T09:42:19;24.20;98.60
8914;DHT22;4492;48.736;9.092;2022-07-21T09:44:48;24.30;96.20
8914;DHT22;4492;48.736;9.092;2022-07-21T09:47:17;24.30;95.50
8914;DHT22;4492;48.736;9.092;2022-07-21T09:49:43;24.40;94.60
8914;DHT22;4492;48.736;9.092;2022-07-21T09:52:38;24.60;93.60
8914;DHT22;4492;48.736;9.092;2022-07-21T09:55:05;24.70;92.60
8914;DHT22;4492;48.736;9.092;2022-07-21T09:57:31;24.70;92.00
8914;DHT22;4492;48.736;9.092;2022-07-21T09:59:58;24.80;92.60
8914;DHT22;4492;48.736;9.092;2022-07-21T10:02:29;24.90;91.20
8914;DHT22;4492;48.736;9.092;2022-07-21T10:05:10;25.00;92.00
8914;DHT22;4492;48.736;9.092;2022-07-21T10:07:47;25.20;91.20
8914;DHT22;4492;48.736;9.092;2022-07-21T10:10:13;25.50;90.40
8914;DHT22;4492;48.736;9.092;2022-07-21T10:12:39;25.80;86.70
8914;DHT22;4492;48.736;9.092;2022-07-21T10:15:05;25.90;85.80
8914;DHT22;4492;48.736;9.092;2022-07-21T10:17:31;25.90;86.40
8914;DHT22;4492;48.736;9.092;2022-07-21T10:20:23;26.10;87.70
8914;DHT22;4492;48.736;9.092;2022-07-21T10:23:10;26.10;84.70
8914;DHT22;4492;48.736;9.092;2022-07-21T10:25:38;25.80;86.30
8914;DHT22;4492;48.736;9.092;2022-07-21T10:30:43;25.40;85.60
8914;DHT22;4492;48.736;9.092;2022-07-21T10:33:09;25.40;84.80
8914;DHT22;4492;48.736;9.092;2022-07-21T10:35:40;25.60;84.90
8914;DHT22;4492;48.736;9.092;2022-07-21T10:38:06;25.70;82.70
8914;DHT22;4492;48.736;9.092;2022-07-21T10:45:31;25.80;83.00
8914;DHT22;4492;48.736;9.092;2022-07-21T10:47:58;26.00;80.70
8914;DHT22;4492;48.736;9.092;2022-07-21T10:50:32;26.20;78.80
8914;DHT22;4492;48.736;9.092;2022-07-21T10:53:00;26.30;78.90
8914;DHT22;4492;48.736;9.092;2022-07-21T10:55:28;26.50;78.40
8914;DHT22;4492;48.736;9.092;2022-07-21T10:58:14;26.80;76.10
8914;DHT22;4492;48.736;9.092;2022-07-21T11:00:48;26.80;73.30
8914;DHT22;4492;48.736;9.092;2022-07-21T11:06:26;26.70;75.90
8914;DHT22;4492;48.736;9.092;2022-07-21T11:11:32;27.00;73.70
8914;DHT22;4492;48.736;9.092;2022-07-21T11:14:12;27.30;72.20
8914;DHT22;4492;48.736;9.092;2022-07-21T11:22:02;27.50;73.80
8914;DHT22;4492;48.736;9.092;2022-07-21T11:24:28;27.50;72.10
8914;DHT22;4492;48.736;9.092;2022-07-21T11:26:59;27.70;72.80
8914;DHT22;4492;48.736;9.092;2022-07-21T11:29:26;28.00;71.00
8914;DHT22;4492;48.736;9.092;2022-07-21T11:31:51;28.20;68.10
8914;DHT22;4492;48.736;9.092;2022-07-21T11:34:18;28.30;69.50
8914;DHT22;4492;48.736;9.092;2022-07-21T11:36:45;28.40;66.60
8914;DHT22;4492;48.736;9.092;2022-07-21T11:39:13;28.40;64.70
8914;DHT22;4492;48.736;9.092;2022-07-21T11:41:41;28.20;64.70
8914;DHT22;4492;48.736;9.092;2022-07-21T11:44:09;27.90;66.00
8914;DHT22;4492;48.736;9.092;2022-07-21T11:46:56;27.50;66.90
8914;DHT22;4492;48.736;9.092;2022-07-21T11:49:22;27.50;65.90
8914;DHT22;4492;48.736;9.092;2022-07-21T11:56:52;27.30;68.00
8914;DHT22;4492;48.736;9.092;2022-07-21T11:59:19;27.20;68.70
8914;DHT22;4492;48.736;9.092;2022-07-21T12:01:59;27.30;68.10
8914;DHT22;4492;48.736;9.092;2022-07-21T12:07:14;27.30;69.60
8914;DHT22;4492;48.736;9.092;2022-07-21T12:09:43;27.40;67.80
8914;DHT22;4492;48.736;9.092;2022-07-21T12:12:09;27.50;66.50
8914;DHT22;4492;48.736;9.092;2022-07-21T12:14:49;27.60;67.00
8914;DHT22;4492;48.736;9.092;2022-07-21T12:17:17;27.70;63.80
8914;DHT22;4492;48.736;9.092;2022-07-21T12:19:44;27.50;64.80
8914;DHT22;4492;48.736;9.092;2022-07-21T12:22:09;27.50;64.60
8914;DHT22;4492;48.736;9.092;2022-07-21T12:24:53;27.70;63.70
8914;DHT22;4492;48.736;9.092;2022-07-21T12:27:19;27.60;65.10
8914;DHT22;4492;48.736;9.092;2022-07-21T12:29:45;27.60;66.70
8914;DHT22;4492;48.736;9.092;2022-07-21T12:32:11;27.50;67.20
8914;DHT22;4492;48.736;9.092;2022-07-21T12:34:53;27.60;68.30
8914;DHT22;4492;48.736;9.092;2022-07-21T12:37:19;27.50;70.30
8914;DHT22;4492;48.736;9.092;2022-07-21T12:40:03;27.50;70.50
8914;DHT22;4492;48.736;9.092;2022-07-21T12:42:33;27.60;69.90
8914;DHT22;4492;48.736;9.092;2022-07-21T12:45:12;27.80;67.90
8914;DHT22;4492;48.736;9.092;2022-07-21T12:47:38;27.70;67.80
8914;DHT22;4492;48.736;9.092;2022-07-21T12:50:07;27.50;68.30
8914;DHT22;4492;48.736;9.092;2022-07-21T12:52:33;27.50;69.20
8914;DHT22;4492;48.736;9.092;2022-07-21T12:55:00;27.40;68.40
8914;DHT22;4492;48.736;9.092;2022-07-21T12:57:31;27.50;69.20
8914;DHT22;4492;48.736;9.092;2022-07-21T13:00:00;27.70;70.20
8914;DHT22;4492;48.736;9.092;2022-07-21T13:02:27;27.90;67.20
8914;DHT22;4492;48.736;9.092;2022-07-21T13:04:55;27.80;66.70
8914;DHT22;4492;48.736;9.092;2022-07-21T13:07:20;27.70;66.30
8914;DHT22;4492;48.736;9.092;2022-07-21T13:09:46;27.60;65.30
8914;DHT22;4492;48.736;9.092;2022-07-21T13:12:12;27.50;65.90
8914;DHT22;4492;48.736;9.092;2022-07-21T13:14:39;27.60;66.50
8914;DHT22;4492;48.736;9.092;2022-07-21T13:17:04;28.00;67.10
8914;DHT22;4492;48.736;9.092;2022-07-21T13:19:30;28.10;66.30
8914;DHT22;4492;48.736;9.092;2022-07-21T13:21:56;27.90;66.20
8914;DHT22;4492;48.736;9.092;2022-07-21T13:24:21;27.90;67.10
8914;DHT22;4492;48.736;9.092;2022-07-21T13:26:47;27.70;68.90
8914;DHT22;4492;48.736;9.092;2022-07-21T13:29:13;27.40;69.40
8914;DHT22;4492;48.736;9.092;2022-07-21T13:31:38;27.20;70.90
8914;DHT22;4492;48.736;9.092;2022-07-21T13:34:05;26.90;71.80
8914;DHT22;4492;48.736;9.092;2022-07-21T13:36:34;26.90;74.00
8914;DHT22;4492;48.736;9.092;2022-07-21T13:39:00;27.20;73.20
8914;DHT22;4492;48.736;9.092;2022-07-21T13:41:26;27.10;73.50
8914;DHT22;4492;48.736;9.092;2022-07-21T13:43:52;26.90;74.20
8914;DHT22;4492;48.736;9.092;2022-07-21T13:46:17;26.80;73.90
8914;DHT22;4492;48.736;9.092;2022-07-21T13:48:44;26.70;74.70
8914;DHT22;4492;48.736;9.092;2022-07-21T13:51:15;26.80;72.80
8914;DHT22;4492;48.736;9.092;2022-07-21T13:53:42;26.90;72.70
8914;DHT22;4492;48.736;9.092;2022-07-21T13:56:09;27.00;72.70
8914;DHT22;4492;48.736;9.092;2022-07-21T13:58:36;27.10;72.40
8914;DHT22;4492;48.736;9.092;2022-07-21T14:01:02;27.20;71.80
8914;DHT22;4492;48.736;9.092;2022-07-21T14:03:27;27.50;69.80
8914;DHT22;4492;48.736;9.092;2022-07-21T14:05:53;27.50;70.10
8914;DHT22;4492;48.736;9.092;2022-07-21T14:08:19;27.60;70.50
8914;DHT22;4492;48.736;9.092;2022-07-21T14:10:45;27.40;71.70
8914;DHT22;4492;48.736;9.092;2022-07-21T14:13:10;27.30;70.80
8914;DHT22;4492;48.736;9.092;2022-07-21T14:15:36;27.50;71.40
8914;DHT22;4492;48.736;9.092;2022-07-21T14:18:02;27.80;70.60
8914;DHT22;4492;48.736;9.092;2022-07-21T14:20:27;28.40;67.20
8914;DHT22;4492;48.736;9.092;2022-07-21T14:22:56;28.50;65.60
8914;DHT22;4492;48.736;9.092;2022-07-21T14:25:22;28.40;67.20
8914;DHT22;4492;48.736;9.092;2022-07-21T14:27:50;28.20;68.50
8914;DHT22;4492;48.736;9.092;2022-07-21T14:30:17;28.10;68.90
8914;DHT22;4492;48.736;9.092;2022-07-21T14:32:45;28.20;66.20
8914;DHT22;4492;48.736;9.092;2022-07-21T14:35:11;28.20;67.10
8914;DHT22;4492;48.736;9.092;2022-07-21T14:37:37;28.20;67.30
8914;DHT22;4492;48.736;9.092;2022-07-21T14:40:06;28.10;67.40
8914;DHT22;4492;48.736;9.092;2022-07-21T14:42:34;27.90;67.30
8914;DHT22;4492;48.736;9.092;2022-07-21T14:44:59;27.80;67.20
8914;DHT22;4492;48.736;9.092;2022-07-21T14:47:25;27.80;68.10
8914;DHT22;4492;48.736;9.092;2022-07-21T14:49:51;27.90;67.50
8914;DHT22;4492;48.736;9.092;2022-07-21T14:52:16;28.20;67.20
8914;DHT22;4492;48.736;9.092;2022-07-21T14:54:42;28.30;67.70
8914;DHT22;4492;48.736;9.092;2022-07-21T14:57:07;28.50;66.70
8914;DHT22;4492;48.736;9.092;2022-07-21T14:59:33;28.60;64.60
8914;DHT22;4492;48.736;9.092;2022-07-21T15:01:58;28.70;64.80
8914;DHT22;4492;48.736;9.092;2022-07-21T15:04:24;29.00;65.70
8914;DHT22;4492;48.736;9.092;2022-07-21T15:06:50;29.30;63.90
8914;DHT22;4492;48.736;9.092;2022-07-21T15:09:16;29.40;61.40
8914;DHT22;4492;48.736;9.092;2022-07-21T15:11:41;29.40;62.30
8914;DHT22;4492;48.736;9.092;2022-07-21T15:14:07;29.50;62.80
8914;DHT22;4492;48.736;9.092;2022-07-21T15:16:33;29.80;62.20
8914;DHT22;4492;48.736;9.092;2022-07-21T15:18:58;29.90;59.80
8914;DHT22;4492;48.736;9.092;2022-07-21T15:21:24;29.70;60.10
8914;DHT22;4492;48.736;9.092;2022-07-21T15:23:50;29.60;60.70
8914;DHT22;4492;48.736;9.092;2022-07-21T15:26:16;29.30;61.80
8914;DHT22;4492;48.736;9.092;2022-07-21T15:28:41;29.00;62.00
8914;DHT22;4492;48.736;9.092;2022-07-21T15:31:07;28.70;61.20
8914;DHT22;4492;48.736;9.092;2022-07-21T15:33:33;28.50;64.40
8914;DHT22;4492;48.736;9.092;2022-07-21T15:35:59;28.30;65.00
8914;DHT22;4492;48.736;9.092;2022-07-21T15:38:24;28.20;65.30
8914;DHT22;4492;48.736;9.092;2022-07-21T15:40:51;28.00;65.40
8914;DHT22;4492;48.736;9.092;2022-07-21T15:43:17;27.90;65.60
8914;DHT22;4492;48.736;9.092;2022-07-21T15:45:43;27.80;65.00
8914;DHT22;4492;48.736;9.092;2022-07-21T15:48:09;27.70;66.50
8914;DHT22;4492;48.736;9.092;2022-07-21T15:50:35;27.80;66.30
8914;DHT22;4492;48.736;9.092;2022-07-21T15:53:01;27.80;66.00
8914;DHT22;4492;48.736;9.092;2022-07-21T15:55:27;27.60;66.80
8914;DHT22;4492;48.736;9.092;2022-07-21T15:57:52;27.50;67.70
8914;DHT22;4492;48.736;9.092;2022-07-21T16:00:20;27.50;68.30
8914;DHT22;4492;48.736;9.092;2022-07-21T16:02:46;27.80;67.80
8914;DHT22;4492;48.736;9.092;2022-07-21T16:05:15;28.30;66.00
8914;DHT22;4492;48.736;9.092;2022-07-21T16:07:42;28.50;64.90
8914;DHT22;4492;48.736;9.092;2022-07-21T16:10:09;28.40;66.10
8914;DHT22;4492;48.736;9.092;2022-07-21T16:12:35;28.40;67.70
8914;DHT22;4492;48.736;9.092;2022-07-21T16:15:00;28.30;66.40
8914;DHT22;4492;48.736;9.092;2022-07-21T16:17:26;28.30;67.40
8914;DHT22;4492;48.736;9.092;2022-07-21T16:19:51;28.90;64.30
8914;DHT22;4492;48.736;9.092;2022-07-21T16:22:17;29.60;61.40
8914;DHT22;4492;48.736;9.092;2022-07-21T16:24:43;30.30;60.50
8914;DHT22;4492;48.736;9.092;2022-07-21T16:27:09;30.90;60.40
8914;DHT22;4492;48.736;9.092;2022-07-21T16:29:35;31.30;59.10
8914;DHT22;4492;48.736;9.092;2022-07-21T16:32:01;31.20;59.00